createdAt,value
2022-11-16T00:02:01.593Z,29.80
2022-11-16T00:04:29.879Z,31.37
2022-11-16T00:07:02.838Z,28.73
2022-11-16T00:09:32.121Z,28.67
2022-11-16T00:12:01.907Z,31.70
2022-11-16T00:14:32.522Z,29.30
2022-11-16T00:17:01.917Z,29.60
2022-11-16T00:19:30.547Z,31.20
2022-11-16T00:22:00.215Z,30.63
2022-11-16T00:24:28.496Z,32.30
2022-11-16T00:26:57.132Z,29.67
2022-11-16T00:29:27.132Z,33.60
2022-11-16T00:31:55.928Z,30.30
2022-11-16T00:34:24.945Z,28.57
2022-11-16T00:36:53.203Z,29.17
2022-11-16T00:39:22.925Z,29.17
2022-11-16T00:41:51.540Z,28.53
2022-11-16T00:44:19.918Z,30.73
2022-11-16T00:46:48.172Z,30.67
2022-11-16T00:49:16.774Z,32.00
2022-11-16T00:51:45.038Z,32.57
2022-11-16T00:54:13.369Z,29.70
2022-11-16T00:56:42.990Z,35.03
2022-11-16T00:59:11.213Z,32.10
2022-11-16T01:01:39.589Z,32.73
2022-11-16T01:04:07.938Z,33.73
2022-11-16T01:06:36.199Z,33.00
2022-11-16T01:09:04.641Z,29.93
2022-11-16T01:11:53.246Z,32.13
2022-11-16T01:14:23.005Z,37.73
2022-11-16T01:16:51.910Z,33.57
2022-11-16T01:19:20.137Z,32.40
2022-11-16T01:21:48.663Z,34.17
2022-11-16T01:24:16.992Z,33.33
2022-11-16T01:26:45.424Z,30.30
2022-11-16T01:29:13.735Z,30.70
2022-11-16T01:31:43.780Z,34.57
2022-11-16T01:34:12.058Z,33.60
2022-11-16T01:36:40.348Z,34.70
2022-11-16T01:39:08.783Z,37.77
2022-11-16T01:41:37.512Z,35.97
2022-11-16T01:44:07.674Z,34.20
2022-11-16T01:46:35.968Z,32.00
2022-11-16T01:49:09.954Z,32.47
2022-11-16T01:51:39.139Z,41.67
2022-11-16T01:54:10.994Z,37.57
2022-11-16T01:56:40.735Z,35.13
2022-11-16T01:59:09.720Z,40.93
2022-11-16T02:02:03.574Z,40.50
2022-11-16T02:04:33.364Z,36.97
2022-11-16T02:07:09.351Z,37.47
2022-11-16T02:09:55.436Z,36.57
2022-11-16T02:12:50.924Z,35.10
2022-11-16T02:15:27.444Z,39.33
2022-11-16T02:18:05.448Z,35.67
2022-11-16T02:20:48.221Z,36.80
2022-11-16T02:24:04.418Z,38.33
2022-11-16T02:27:26.351Z,48.97
2022-11-16T02:29:57.428Z,41.53
2022-11-16T02:32:31.029Z,43.10
2022-11-16T02:35:07.417Z,41.50
2022-11-16T02:37:41.856Z,42.87
2022-11-16T02:40:13.372Z,45.30
2022-11-16T02:42:46.007Z,49.77
2022-11-16T02:45:19.585Z,52.57
2022-11-16T02:47:49.752Z,49.53
2022-11-16T02:50:21.373Z,48.40
2022-11-16T02:52:49.608Z,46.63
2022-11-16T02:55:18.167Z,44.67
2022-11-16T02:57:52.543Z,45.33
2022-11-16T03:00:25.140Z,49.47
2022-11-16T03:03:08.408Z,42.53
2022-11-16T03:05:40.441Z,39.43
2022-11-16T03:08:17.262Z,39.43
2022-11-16T03:11:08.334Z,44.30
2022-11-16T03:13:38.333Z,39.23
2022-11-16T03:16:13.708Z,40.43
2022-11-16T03:18:42.789Z,42.83
2022-11-16T03:21:17.643Z,42.27
2022-11-16T03:23:47.251Z,40.47
2022-11-16T03:26:19.711Z,41.10
2022-11-16T03:28:53.497Z,43.37
2022-11-16T03:31:29.469Z,39.03
2022-11-16T03:34:26.631Z,38.80
2022-11-16T03:36:57.034Z,48.27
2022-11-16T03:39:30.818Z,49.33
2022-11-16T03:42:01.069Z,46.77
2022-11-16T03:44:30.175Z,43.07
2022-11-16T03:46:59.982Z,40.70
2022-11-16T03:49:32.076Z,42.13
2022-11-16T03:52:00.539Z,43.43
2022-11-16T03:54:28.801Z,40.60
2022-11-16T03:56:57.113Z,42.40
2022-11-16T03:59:25.503Z,45.53
2022-11-16T04:01:53.976Z,41.33
2022-11-16T04:04:41.004Z,39.33
2022-11-16T04:07:38.743Z,42.67
2022-11-16T04:10:25.102Z,41.53
2022-11-16T04:13:11.425Z,39.57
2022-11-16T04:19:00.326Z,34.53
2022-11-16T04:21:51.609Z,34.20
2022-11-16T04:24:23.259Z,34.83
2022-11-16T04:27:29.579Z,35.93
2022-11-16T04:29:59.871Z,36.67
2022-11-16T04:32:45.570Z,35.93
2022-11-16T04:35:31.305Z,40.17
2022-11-16T04:38:01.324Z,33.90
2022-11-16T04:40:30.232Z,37.50
2022-11-16T04:42:58.753Z,39.30
2022-11-16T04:45:56.734Z,37.13
2022-11-16T04:48:24.994Z,34.23
2022-11-16T04:50:53.295Z,37.27
2022-11-16T04:53:26.977Z,34.07
2022-11-16T04:56:00.483Z,30.83
2022-11-16T04:58:29.187Z,32.93
2022-11-16T05:00:57.486Z,33.77
2022-11-16T05:03:25.721Z,32.83
2022-11-16T05:05:53.932Z,34.00
2022-11-16T05:08:23.571Z,36.77
2022-11-16T05:10:52.430Z,36.43
2022-11-16T05:13:20.680Z,37.47
2022-11-16T05:15:48.931Z,37.80
2022-11-16T05:18:17.340Z,31.87
2022-11-16T05:21:02.404Z,33.50
2022-11-16T05:24:01.088Z,32.67
2022-11-16T05:26:29.354Z,36.50
2022-11-16T05:28:57.589Z,36.47
2022-11-16T05:31:25.774Z,34.90
2022-11-16T05:33:54.070Z,36.00
2022-11-16T05:36:27.340Z,35.47
2022-11-16T05:38:56.891Z,37.97
2022-11-16T05:41:25.100Z,34.83
2022-11-16T05:43:53.305Z,34.60
2022-11-16T05:46:21.624Z,35.60
2022-11-16T05:48:50.182Z,37.43
2022-11-16T05:51:18.823Z,35.13
2022-11-16T05:53:49.317Z,35.20
2022-11-16T05:56:19.021Z,33.57
2022-11-16T05:58:47.908Z,34.17
2022-11-16T06:01:16.132Z,35.37
2022-11-16T06:03:44.464Z,35.37
2022-11-16T06:06:12.640Z,35.97
2022-11-16T06:08:41.035Z,34.00
2022-11-16T06:11:11.048Z,31.57
2022-11-16T06:13:50.975Z,32.60
2022-11-16T06:16:19.314Z,30.57
2022-11-16T06:18:48.844Z,31.43
2022-11-16T06:21:18.744Z,35.10
2022-11-16T06:23:47.490Z,37.83
2022-11-16T06:26:15.814Z,33.87
2022-11-16T06:28:44.919Z,36.43
2022-11-16T06:31:14.518Z,31.87
2022-11-16T06:33:42.843Z,33.10
2022-11-16T06:36:11.115Z,30.23
2022-11-16T06:38:39.439Z,33.97
2022-11-16T06:41:07.746Z,31.90
2022-11-16T06:43:35.918Z,29.87
2022-11-16T06:46:04.224Z,34.40
2022-11-16T06:48:34.817Z,33.00
2022-11-16T06:51:03.347Z,36.67
2022-11-16T06:56:23.405Z,48.50
2022-11-16T06:58:53.471Z,41.50
2022-11-16T07:01:46.730Z,36.70
2022-11-16T07:04:16.350Z,34.57
2022-11-16T07:06:44.632Z,37.87
2022-11-16T07:09:15.229Z,37.23
2022-11-16T07:11:43.435Z,38.90
2022-11-16T07:14:12.654Z,42.73
2022-11-16T07:16:41.038Z,42.13
2022-11-16T07:19:10.167Z,51.37
2022-11-16T07:21:40.208Z,47.40
2022-11-16T07:24:08.594Z,41.43
2022-11-16T07:26:36.938Z,47.43
2022-11-16T07:29:05.349Z,43.50
2022-11-16T07:31:33.634Z,45.03
2022-11-16T07:34:20.293Z,42.60
2022-11-16T07:36:49.906Z,41.60
2022-11-16T07:39:18.173Z,37.60
2022-11-16T07:41:47.081Z,41.40
2022-11-16T07:44:15.287Z,37.60
2022-11-16T07:46:46.996Z,35.07
2022-11-16T07:49:16.761Z,39.23
2022-11-16T07:51:45.755Z,39.80
2022-11-16T07:54:16.038Z,37.23
2022-11-16T07:56:44.294Z,37.67
2022-11-16T07:59:12.638Z,30.53
2022-11-16T08:01:40.920Z,33.97
2022-11-16T08:04:09.236Z,34.07
2022-11-16T08:06:37.452Z,36.97
2022-11-16T08:09:05.747Z,35.10
2022-11-16T08:11:35.287Z,32.27
2022-11-16T08:14:03.460Z,36.43
2022-11-16T08:16:33.365Z,38.43
2022-11-16T08:19:02.417Z,37.67
2022-11-16T08:21:30.695Z,37.10
2022-11-16T08:23:59.256Z,41.03
2022-11-16T08:26:28.275Z,39.07
2022-11-16T08:29:23.297Z,40.83
2022-11-16T08:31:51.729Z,46.97
2022-11-16T08:34:20.064Z,53.40
2022-11-16T08:36:48.389Z,51.20
2022-11-16T08:39:21.676Z,55.30
2022-11-16T08:42:14.974Z,45.00
2022-11-16T08:44:44.644Z,40.77
2022-11-16T08:47:12.836Z,42.20
2022-11-16T08:49:44.009Z,39.47
2022-11-16T08:52:16.482Z,38.50
2022-11-16T08:54:44.669Z,45.93
2022-11-16T08:57:13.055Z,40.03
2022-11-16T08:59:41.290Z,44.70
2022-11-16T09:02:11.193Z,46.47
2022-11-16T09:04:39.473Z,47.40
2022-11-16T09:07:33.065Z,47.53
2022-11-16T09:10:01.568Z,45.43
2022-11-16T09:12:29.790Z,44.90
2022-11-16T09:14:57.981Z,46.00
2022-11-16T09:17:27.544Z,40.43
2022-11-16T09:19:55.761Z,44.13
2022-11-16T09:22:24.050Z,43.93
2022-11-16T09:24:52.273Z,48.03
2022-11-16T09:27:20.464Z,48.00
2022-11-16T09:29:48.658Z,48.27
2022-11-16T09:32:16.858Z,46.87
2022-11-16T09:34:46.488Z,48.23
2022-11-16T09:37:15.347Z,52.47
2022-11-16T09:39:43.581Z,56.67
2022-11-16T09:42:25.484Z,51.60
2022-11-16T09:45:04.605Z,52.83
2022-11-16T09:47:48.994Z,51.83
2022-11-16T09:50:32.703Z,49.50
2022-11-16T09:53:10.951Z,48.43
2022-11-16T09:55:46.678Z,44.27
2022-11-16T09:58:18.985Z,47.27
2022-11-16T10:00:53.776Z,44.90
2022-11-16T10:03:25.538Z,46.77
2022-11-16T10:06:02.817Z,46.03
2022-11-16T10:08:43.990Z,47.33
2022-11-16T10:11:48.074Z,46.73
2022-11-16T10:14:50.171Z,48.03
2022-11-16T10:20:48.261Z,42.90
2022-11-16T10:23:27.674Z,38.60
2022-11-16T10:26:04.656Z,40.10
2022-11-16T10:28:58.646Z,39.77
2022-11-16T10:31:34.359Z,38.67
2022-11-16T10:34:23.925Z,35.70
2022-11-16T10:36:55.645Z,37.10
2022-11-16T10:39:27.522Z,39.10
2022-11-16T10:42:03.214Z,40.90
2022-11-16T10:44:37.974Z,40.50
2022-11-16T10:47:18.022Z,41.47
2022-11-16T10:49:54.808Z,44.27
2022-11-16T10:52:23.648Z,47.40
2022-11-16T10:54:59.147Z,44.93
2022-11-16T10:57:47.358Z,49.17
2022-11-16T11:00:37.969Z,48.70
2022-11-16T11:03:06.712Z,50.83
2022-11-16T11:06:00.492Z,49.30
2022-11-16T11:08:31.549Z,51.53
2022-11-16T11:11:23.255Z,50.23
2022-11-16T11:14:11.374Z,51.93
2022-11-16T11:16:41.477Z,54.70
2022-11-16T11:19:20.474Z,51.97
2022-11-16T11:21:49.322Z,50.73
2022-11-16T11:27:08.769Z,52.23
2022-11-16T11:29:38.768Z,51.73
2022-11-16T11:32:22.411Z,50.43
2022-11-16T11:34:54.872Z,53.10
2022-11-16T11:37:28.793Z,51.93
2022-11-16T11:40:20.394Z,51.50
2022-11-16T11:43:01.701Z,56.87
2022-11-16T11:45:36.749Z,52.10
2022-11-16T11:48:16.911Z,53.23
2022-11-16T11:50:50.862Z,52.93
2022-11-16T11:53:40.685Z,52.00
2022-11-16T11:56:12.916Z,50.13
2022-11-16T11:58:43.464Z,52.63
2022-11-16T12:01:53.771Z,50.03
2022-11-16T12:04:59.244Z,48.80
2022-11-16T12:07:39.830Z,48.27
2022-11-16T12:10:17.598Z,47.43
2022-11-16T12:13:01.155Z,46.67
2022-11-16T12:15:51.504Z,45.73
2022-11-16T12:18:43.366Z,46.17
2022-11-16T12:21:14.398Z,46.37
2022-11-16T12:24:04.447Z,44.67
2022-11-16T12:26:44.947Z,44.67
2022-11-16T12:29:27.813Z,44.43
2022-11-16T12:32:22.994Z,43.37
2022-11-16T12:35:03.216Z,42.33
2022-11-16T12:37:36.417Z,43.13
2022-11-16T12:40:33.012Z,44.07
2022-11-16T12:43:10.673Z,41.90
2022-11-16T12:46:14.140Z,46.40
2022-11-16T12:49:11.559Z,43.30
2022-11-16T12:51:55.591Z,42.60
2022-11-16T12:55:25.458Z,44.50
2022-11-16T12:58:06.044Z,39.67
2022-11-16T13:00:47.965Z,40.13
2022-11-16T13:03:21.352Z,38.73
2022-11-16T13:05:59.145Z,39.57
2022-11-16T13:08:51.093Z,40.87
2022-11-16T13:11:23.921Z,41.57
2022-11-16T13:13:57.014Z,40.93
2022-11-16T13:16:26.313Z,36.40
2022-11-16T13:18:56.253Z,36.53
2022-11-16T13:21:44.767Z,32.67
2022-11-16T13:24:28.286Z,34.50
2022-11-16T13:27:05.487Z,32.47
2022-11-16T13:29:39.151Z,32.10
2022-11-16T13:32:12.198Z,34.93
2022-11-16T13:34:41.308Z,37.50
2022-11-16T13:37:43.022Z,38.03
2022-11-16T13:40:29.157Z,33.20
2022-11-16T13:43:16.295Z,37.87
2022-11-16T13:45:52.728Z,38.47
2022-11-16T13:48:24.026Z,39.17
2022-11-16T13:50:55.196Z,38.73
2022-11-16T13:54:25.308Z,37.07
2022-11-16T13:56:28.575Z,37.17
2022-11-16T13:58:58.338Z,38.23
2022-11-16T14:01:27.017Z,40.03
2022-11-16T14:04:38.729Z,39.43
2022-11-16T14:07:28.353Z,39.23
2022-11-16T14:09:56.736Z,38.27
2022-11-16T14:12:54.410Z,37.20
2022-11-16T14:15:26.568Z,39.73
2022-11-16T14:17:58.164Z,37.83
2022-11-16T14:20:52.511Z,37.43
2022-11-16T14:23:40.559Z,36.13
2022-11-16T14:26:17.182Z,38.13
2022-11-16T14:29:14.267Z,38.63
2022-11-16T14:31:53.606Z,37.77
2022-11-16T14:34:49.196Z,35.93
2022-11-16T14:37:31.949Z,31.80
2022-11-16T14:40:05.614Z,32.97
2022-11-16T14:42:54.393Z,40.80
2022-11-16T14:45:27.502Z,37.67
2022-11-16T14:48:02.228Z,37.93
2022-11-16T14:50:35.418Z,38.40
2022-11-16T14:53:09.152Z,74.50
2022-11-16T14:55:43.685Z,97.17
2022-11-16T14:58:18.808Z,102.50
2022-11-16T15:00:54.426Z,62.50
2022-11-16T15:03:26.688Z,38.53
2022-11-16T15:05:58.491Z,35.87
2022-11-16T15:08:32.732Z,35.60
2022-11-16T15:11:01.644Z,41.53
2022-11-16T15:13:29.986Z,41.63
2022-11-16T15:16:15.582Z,43.43
2022-11-16T15:19:02.617Z,37.83
2022-11-16T15:21:30.870Z,44.63
2022-11-16T15:24:28.921Z,34.73
2022-11-16T15:26:47.301Z,37.27
2022-11-16T15:29:18.612Z,35.60
2022-11-16T15:31:47.581Z,34.37
2022-11-16T15:34:18.555Z,33.03
2022-11-16T15:36:47.538Z,32.90
2022-11-16T15:39:19.800Z,30.97
2022-11-16T15:41:48.515Z,34.43
2022-11-16T15:44:18.786Z,41.17
2022-11-16T15:46:49.084Z,48.50
2022-11-16T15:49:29.286Z,48.60
2022-11-16T15:52:01.585Z,58.10
2022-11-16T15:54:31.135Z,48.07
2022-11-16T15:57:07.888Z,55.70
2022-11-16T15:59:38.232Z,61.70
2022-11-16T16:02:06.708Z,57.93
2022-11-16T16:04:37.048Z,52.50
2022-11-16T16:07:05.308Z,56.73
2022-11-16T16:09:35.549Z,54.33
2022-11-16T16:12:18.765Z,50.90
2022-11-16T16:14:48.467Z,53.67
2022-11-16T16:17:24.389Z,49.70
2022-11-16T16:19:57.805Z,52.87
2022-11-16T16:22:29.607Z,80.47
2022-11-16T16:24:58.015Z,70.77
2022-11-16T16:27:28.043Z,62.93
2022-11-16T16:29:57.718Z,64.77
2022-11-16T16:32:27.622Z,60.50
2022-11-16T16:34:58.691Z,52.23
2022-11-16T16:37:28.383Z,45.60
2022-11-16T16:39:56.771Z,44.70
2022-11-16T16:42:25.288Z,48.47
2022-11-16T16:44:53.684Z,48.17
2022-11-16T16:47:21.944Z,46.27
2022-11-16T16:49:50.626Z,49.63
2022-11-16T16:52:20.482Z,50.90
2022-11-16T16:54:48.771Z,52.93
2022-11-16T16:57:17.998Z,54.00
2022-11-16T16:59:48.538Z,48.57
2022-11-16T17:02:17.726Z,50.80
2022-11-16T17:04:46.945Z,52.47
2022-11-16T17:07:15.527Z,51.30
2022-11-16T17:09:45.160Z,48.10
2022-11-16T17:12:13.610Z,50.33
2022-11-16T17:14:42.046Z,56.90
2022-11-16T17:17:10.245Z,68.27
2022-11-16T17:19:38.472Z,53.73
2022-11-16T17:22:06.665Z,49.70
2022-11-16T17:24:36.303Z,44.93
2022-11-16T17:27:06.304Z,39.50
2022-11-16T17:29:34.584Z,39.37
2022-11-16T17:32:02.879Z,41.50
2022-11-16T17:34:56.156Z,38.27
2022-11-16T17:37:24.525Z,49.63
2022-11-16T17:39:52.808Z,50.43
2022-11-16T17:42:22.401Z,45.50
2022-11-16T17:44:50.775Z,48.87
2022-11-16T17:47:19.023Z,45.60
2022-11-16T17:49:47.284Z,45.33
2022-11-16T17:52:40.344Z,43.17
2022-11-16T17:55:09.689Z,41.27
2022-11-16T17:57:39.230Z,46.00
2022-11-16T18:00:09.078Z,50.80
2022-11-16T18:02:37.257Z,50.27
2022-11-16T18:05:05.845Z,47.47
2022-11-16T18:07:34.461Z,57.97
2022-11-16T18:10:02.796Z,50.80
2022-11-16T18:12:31.010Z,47.70
2022-11-16T18:15:26.928Z,49.80
2022-11-16T18:17:49.023Z,48.03
2022-11-16T18:20:17.401Z,43.13
2022-11-16T18:22:45.849Z,41.63
2022-11-16T18:25:14.035Z,45.20
2022-11-16T18:27:42.357Z,45.27
2022-11-16T18:30:12.805Z,45.73
2022-11-16T18:32:40.989Z,47.40
2022-11-16T18:35:10.081Z,48.80
2022-11-16T18:37:38.269Z,47.33
2022-11-16T18:40:13.018Z,49.50
2022-11-16T18:42:41.723Z,56.00
2022-11-16T18:45:11.899Z,53.87
2022-11-16T18:47:40.106Z,54.40
2022-11-16T18:50:19.016Z,53.23
2022-11-16T18:52:49.647Z,52.23
2022-11-16T18:55:18.023Z,55.57
2022-11-16T18:57:46.238Z,53.53
2022-11-16T19:00:19.167Z,48.73
2022-11-16T19:02:47.391Z,48.33
2022-11-16T19:05:15.706Z,45.33
2022-11-16T19:07:43.953Z,44.87
2022-11-16T19:10:12.250Z,46.63
2022-11-16T19:12:40.441Z,47.03
2022-11-16T19:15:09.107Z,47.03
2022-11-16T19:17:59.340Z,45.13
2022-11-16T19:20:26.998Z,40.13
2022-11-16T19:22:55.297Z,45.23
2022-11-16T19:25:23.491Z,43.90
2022-11-16T19:27:51.825Z,43.43
2022-11-16T19:30:20.472Z,40.33
2022-11-16T19:32:50.053Z,43.63
2022-11-16T19:35:43.171Z,41.57
2022-11-16T19:38:11.394Z,42.13
2022-11-16T19:40:39.676Z,77.03
2022-11-16T19:43:07.868Z,52.47
2022-11-16T19:45:36.119Z,52.27
2022-11-16T19:48:06.394Z,51.63
2022-11-16T19:50:36.435Z,44.37
2022-11-16T19:53:04.610Z,48.37
2022-11-16T19:55:32.835Z,43.80
2022-11-16T19:58:01.038Z,42.77
2022-11-16T20:00:29.318Z,39.60
2022-11-16T20:02:58.309Z,41.83
2022-11-16T20:05:52.766Z,45.43
2022-11-16T20:08:23.972Z,47.33
2022-11-16T20:10:52.132Z,41.97
2022-11-16T20:13:21.896Z,40.57
2022-11-16T20:15:50.140Z,37.70
2022-11-16T20:18:18.357Z,39.27
2022-11-16T20:20:46.567Z,38.87
2022-11-16T20:23:19.499Z,44.30
2022-11-16T20:25:47.693Z,47.43
2022-11-16T20:28:15.915Z,44.97
2022-11-16T20:30:47.252Z,40.27
2022-11-16T20:33:15.775Z,41.53
2022-11-16T20:35:44.006Z,32.60
2022-11-16T20:38:12.279Z,36.77
2022-11-16T20:40:41.931Z,39.10
2022-11-16T20:43:14.341Z,35.87
2022-11-16T20:45:42.557Z,39.43
2022-11-16T20:48:10.788Z,40.33
2022-11-16T20:50:38.963Z,40.47
2022-11-16T20:53:07.164Z,38.00
2022-11-16T20:55:35.364Z,39.00
2022-11-16T20:58:04.995Z,38.73
2022-11-16T21:00:33.211Z,35.13
2022-11-16T21:03:01.395Z,32.97
2022-11-16T21:05:29.593Z,38.17
2022-11-16T21:07:57.774Z,37.97
2022-11-16T21:10:26.018Z,36.07
2022-11-16T21:13:26.038Z,36.57
2022-11-16T21:16:00.010Z,37.23
2022-11-16T21:18:30.900Z,37.03
2022-11-16T21:21:00.680Z,36.87
2022-11-16T21:23:30.557Z,35.07
2022-11-16T21:26:04.304Z,37.30
2022-11-16T21:28:32.605Z,38.53
2022-11-16T21:31:03.963Z,37.83
2022-11-16T21:33:33.246Z,39.63
2022-11-16T21:36:04.472Z,40.53
2022-11-16T21:38:33.977Z,38.90
2022-11-16T21:41:04.305Z,35.23
2022-11-16T21:43:33.796Z,36.93
2022-11-16T21:46:05.690Z,36.23
2022-11-16T21:48:34.408Z,39.97
2022-11-16T21:51:03.196Z,40.37
2022-11-16T21:53:32.052Z,41.30
2022-11-16T21:56:00.602Z,39.93
2022-11-16T21:58:33.102Z,42.37
2022-11-16T22:01:03.830Z,44.60
2022-11-16T22:03:33.703Z,52.27
2022-11-16T22:06:22.112Z,45.87
2022-11-16T22:08:50.791Z,43.20
2022-11-16T22:11:22.133Z,46.03
2022-11-16T22:13:50.849Z,45.33
2022-11-16T22:16:23.214Z,41.67
2022-11-16T22:18:57.507Z,42.87
2022-11-16T22:21:25.711Z,41.03
2022-11-16T22:23:54.406Z,43.90
2022-11-16T22:26:22.683Z,41.03
2022-11-16T22:28:50.908Z,41.50
2022-11-16T22:31:20.462Z,40.80
2022-11-16T22:33:52.893Z,37.37
2022-11-16T22:36:21.132Z,26.10
2022-11-16T22:38:49.319Z,37.37
2022-11-16T22:41:17.566Z,32.73
2022-11-16T22:43:45.780Z,41.87
2022-11-16T22:46:13.999Z,29.20
2022-11-16T22:48:44.950Z,34.97
2022-11-16T22:51:19.656Z,36.00
2022-11-16T22:53:48.113Z,33.37
2022-11-16T22:56:16.302Z,31.50
2022-11-16T22:58:44.567Z,37.23
2022-11-16T23:01:13.761Z,35.93
2022-11-16T23:04:15.381Z,35.90
2022-11-16T23:06:43.589Z,36.60
2022-11-16T23:09:11.793Z,36.77
2022-11-16T23:12:01.115Z,39.60
2022-11-16T23:14:46.724Z,39.83
2022-11-16T23:17:14.966Z,37.37
2022-11-16T23:20:01.753Z,34.87
2022-11-16T23:22:47.132Z,39.53
2022-11-16T23:25:32.586Z,40.17
2022-11-16T23:28:04.151Z,39.13
2022-11-16T23:30:32.658Z,39.80
2022-11-16T23:33:00.933Z,40.63
2022-11-16T23:35:34.877Z,38.70
2022-11-16T23:38:04.914Z,35.80
2022-11-16T23:40:34.871Z,38.87
2022-11-16T23:43:29.058Z,38.63
2022-11-16T23:46:01.095Z,38.07
2022-11-16T23:48:54.605Z,35.73
2022-11-16T23:51:24.792Z,30.70
2022-11-16T23:53:53.399Z,32.27
2022-11-16T23:56:22.998Z,29.00
2022-11-16T23:58:51.301Z,26.40
